Time;durP1;ratioP1;P1;durP2;ratioP2;P2;SDS_P1;SDS_P2;PMS_P1;PMS_P2;Temp;Humidity;BMP_temperature;BMP_pressure;BME280_temperature;BME280_humidity;BME280_pressure;Samples;Min_cycle;Max_cycle;Signal;HPM_P1;HPM_P2
2021/01/27 00:02:19;;;;;;;5.32;3.90;;;-0.80;99.90;;;;;;5048121;28;20201;-69
2021/01/27 00:04:46;;;;;;;7.55;4.60;;;-0.80;99.90;;;;;;5048409;28;20228;-70
2021/01/27 00:07:12;;;;;;;4.78;4.35;;;-0.80;99.90;;;;;;5048756;28;20583;-69
2021/01/27 00:09:38;;;;;;;4.70;4.20;;;-0.80;99.90;;;;;;5048667;28;20255;-69
2021/01/27 00:12:05;;;;;;;7.40;4.32;;;-0.70;99.90;;;;;;5048586;28;20216;-69
2021/01/27 00:14:31;;;;;;;5.93;4.90;;;-0.70;99.90;;;;;;5050037;28;20728;-69
2021/01/27 00:16:57;;;;;;;4.93;4.18;;;-0.70;99.90;;;;;;5048795;28;20216;-69
2021/01/27 00:19:23;;;;;;;4.53;4.13;;;-0.60;99.90;;;;;;5048619;28;20208;-69
2021/01/27 00:21:50;;;;;;;5.63;4.78;;;-0.60;99.90;;;;;;5047676;28;20208;-69
2021/01/27 00:24:17;;;;;;;6.25;4.60;;;-0.60;99.90;;;;;;5048483;28;20209;-68
2021/01/27 00:26:43;;;;;;;5.85;4.80;;;-0.60;99.90;;;;;;5048446;28;20209;-68
2021/01/27 00:29:09;;;;;;;6.72;5.20;;;-0.50;99.90;;;;;;5049728;28;20316;-68
2021/01/27 00:31:35;;;;;;;5.60;4.65;;;-0.50;99.90;;;;;;5051576;28;20585;-68
2021/01/27 00:34:01;;;;;;;5.70;4.53;;;-0.50;99.90;;;;;;5052285;28;20197;-69
2021/01/27 00:36:28;;;;;;;6.63;5.03;;;-0.50;99.90;;;;;;5052422;28;20267;-69
2021/01/27 00:38:55;;;;;;;6.90;4.32;;;-0.40;99.90;;;;;;5052313;28;20201;-69
2021/01/27 00:41:21;;;;;;;5.95;5.35;;;-0.40;99.90;;;;;;5052100;28;20208;-70
2021/01/27 00:43:47;;;;;;;5.88;5.28;;;-0.40;99.90;;;;;;5051402;28;20258;-68
2021/01/27 00:46:13;;;;;;;6.10;5.10;;;-0.50;99.90;;;;;;5052004;28;20228;-69
2021/01/27 00:48:39;;;;;;;10.05;5.75;;;-0.50;99.90;;;;;;5052075;28;20209;-69
2021/01/27 00:51:06;;;;;;;10.10;6.00;;;-0.50;99.90;;;;;;5051857;28;20201;-69
2021/01/27 00:53:32;;;;;;;5.68;5.05;;;-0.60;99.90;;;;;;5051117;28;20209;-69
2021/01/27 00:55:59;;;;;;;6.50;5.90;;;-0.60;99.90;;;;;;5051854;28;20236;-69
2021/01/27 00:58:25;;;;;;;6.50;5.38;;;-0.60;99.90;;;;;;5051778;28;20209;-70
2021/01/27 01:00:51;;;;;;;10.73;5.78;;;-0.70;99.90;;;;;;5051713;28;20566;-68
2021/01/27 01:03:17;;;;;;;6.10;4.82;;;-0.70;99.90;;;;;;5050942;28;20212;-68
2021/01/27 01:05:45;;;;;;;6.22;5.35;;;-0.70;99.90;;;;;;5051615;28;20625;-68
2021/01/27 01:08:15;;;;;;;8.80;6.30;;;-0.70;99.90;;;;;;5051591;28;20209;-69
2021/01/27 01:10:44;;;;;;;7.18;5.25;;;-0.70;99.90;;;;;;5051608;28;20197;-68
2021/01/27 01:13:13;;;;;;;5.88;5.28;;;-0.70;99.90;;;;;;5051177;28;20243;-68
2021/01/27 01:15:40;;;;;;;7.30;5.80;;;-0.70;99.90;;;;;;5051315;28;20589;-69
2021/01/27 01:18:06;;;;;;;8.32;5.90;;;-0.70;99.90;;;;;;5051329;28;20212;-69
2021/01/27 01:20:32;;;;;;;11.52;6.10;;;-0.70;99.90;;;;;;5050957;28;20204;-68
2021/01/27 01:23:01;;;;;;;6.63;5.55;;;-0.70;99.90;;;;;;5050846;28;20200;-68
2021/01/27 01:25:29;;;;;;;6.13;5.53;;;-0.70;99.90;;;;;;5050883;28;20228;-68
2021/01/27 01:27:56;;;;;;;8.20;6.07;;;-0.60;99.90;;;;;;5051334;28;20582;-69
2021/01/27 01:30:25;;;;;;;10.23;5.35;;;-0.60;99.90;;;;;;5050691;28;20710;-69
2021/01/27 01:32:52;;;;;;;8.65;5.22;;;-0.60;99.90;;;;;;5050359;28;20704;-68
2021/01/27 01:35:19;;;;;;;7.90;5.60;;;-0.60;99.90;;;;;;5050837;28;20225;-68
2021/01/27 01:37:45;;;;;;;6.32;5.30;;;-0.60;99.90;;;;;;5050722;28;20201;-69
2021/01/27 01:40:17;;;;;;;8.82;5.45;;;-0.70;99.90;;;;;;5050774;28;20204;-68
2021/01/27 01:42:43;;;;;;;9.88;5.28;;;-0.60;99.90;;;;;;5050425;28;20204;-69
2021/01/27 01:45:28;;;;;;;6.00;4.85;;;-0.60;99.90;;;;;;5050784;28;20225;-69
2021/01/27 01:47:55;;;;;;;7.50;5.30;;;-0.50;99.90;;;;;;5050730;28;20215;-69
2021/01/27 01:50:23;;;;;;;6.30;5.05;;;-0.50;99.90;;;;;;5050522;28;20201;-68
2021/01/27 01:52:50;;;;;;;6.72;4.95;;;-0.50;99.90;;;;;;5050161;28;20229;-68
2021/01/27 01:55:17;;;;;;;6.07;4.60;;;-0.50;99.90;;;;;;5050464;28;20240;-68
2021/01/27 01:57:45;;;;;;;8.73;5.10;;;-0.50;99.90;;;;;;5050754;28;20235;-68
2021/01/27 02:00:12;;;;;;;5.88;4.72;;;-0.50;99.90;;;;;;5050375;28;20247;-68
2021/01/27 02:02:41;;;;;;;5.95;4.80;;;-0.50;99.90;;;;;;5046489;28;20479;-69
2021/01/27 02:05:10;;;;;;;5.82;4.70;;;-0.40;99.90;;;;;;5046831;28;20221;-68
2021/01/27 02:07:36;;;;;;;5.47;4.97;;;-0.40;99.90;;;;;;5048704;28;20636;-68
2021/01/27 02:10:04;;;;;;;6.18;5.30;;;-0.50;99.90;;;;;;5049723;28;20201;-68
2021/01/27 02:12:42;;;;;;;7.40;4.90;;;-0.50;99.90;;;;;;5049335;28;20224;-68
2021/01/27 02:15:34;;;;;;;7.63;4.95;;;-0.50;99.90;;;;;;5050286;28;20639;-68
2021/01/27 02:18:10;;;;;;;7.75;5.05;;;-0.50;99.90;;;;;;5050135;28;20205;-69
2021/01/27 02:21:13;;;;;;;7.07;5.53;;;-0.50;99.90;;;;;;5050139;28;20205;-68
2021/01/27 02:24:11;;;;;;;5.53;4.93;;;-0.50;99.90;;;;;;5049326;28;20205;-68
2021/01/27 02:26:54;;;;;;;6.40;4.85;;;-0.50;99.90;;;;;;5049816;28;20225;-68
2021/01/27 02:29:35;;;;;;;5.22;4.68;;;-0.50;99.90;;;;;;5049628;28;20204;-68
2021/01/27 02:32:21;;;;;;;6.18;5.32;;;-0.60;99.90;;;;;;5049364;28;20221;-68
2021/01/27 02:35:03;;;;;;;5.00;4.38;;;-0.60;99.90;;;;;;5049754;28;20229;-69
2021/01/27 02:37:34;;;;;;;7.07;5.22;;;-0.70;99.90;;;;;;5049624;28;20277;-68
2021/01/27 02:40:06;;;;;;;6.80;4.80;;;-0.80;99.90;;;;;;5049568;28;20727;-68
2021/01/27 02:42:37;;;;;;;7.90;5.15;;;-0.80;99.90;;;;;;5048861;28;20687;-69
2021/01/27 02:45:10;;;;;;;4.43;4.03;;;-0.80;99.90;;;;;;5049846;28;20221;-68
2021/01/27 02:47:44;;;;;;;6.78;5.45;;;-0.80;99.90;;;;;;5049428;28;20197;-69
2021/01/27 02:50:22;;;;;;;6.43;4.93;;;-0.80;99.90;;;;;;5049744;28;20212;-68
2021/01/27 02:52:53;;;;;;;5.70;4.55;;;-0.80;99.90;;;;;;5048585;28;20216;-69
2021/01/27 02:55:24;;;;;;;5.10;4.60;;;-0.70;99.90;;;;;;5049151;28;20257;-68
2021/01/27 02:57:56;;;;;;;9.32;5.00;;;-0.70;99.90;;;;;;5049084;28;20205;-68
2021/01/27 03:00:27;;;;;;;5.68;4.47;;;-0.80;99.90;;;;;;5049183;28;20201;-69
2021/01/27 03:02:59;;;;;;;5.35;4.75;;;-0.80;99.90;;;;;;5049160;28;20196;-68
2021/01/27 03:05:29;;;;;;;7.63;4.78;;;-0.70;99.90;;;;;;5048954;28;20220;-68
2021/01/27 03:07:59;;;;;;;6.15;4.78;;;-0.70;99.90;;;;;;5049605;28;20204;-68
2021/01/27 03:10:31;;;;;;;7.53;5.80;;;-0.70;99.90;;;;;;5049017;28;20225;-67
2021/01/27 03:12:57;;;;;;;6.60;4.63;;;-0.70;99.90;;;;;;5048725;28;20225;-68
2021/01/27 03:15:23;;;;;;;8.65;4.38;;;-0.70;99.90;;;;;;5048721;28;20616;-68
2021/01/27 03:17:55;;;;;;;9.85;5.40;;;-0.80;99.90;;;;;;5049370;28;20564;-68
2021/01/27 03:20:26;;;;;;;7.55;5.68;;;-0.70;99.90;;;;;;5048887;28;20629;-68
2021/01/27 03:22:58;;;;;;;5.10;4.60;;;-0.70;99.90;;;;;;5048575;28;20194;-68
2021/01/27 03:25:27;;;;;;;6.78;4.93;;;-0.70;99.90;;;;;;5048882;28;20251;-68
2021/01/27 03:27:59;;;;;;;5.38;4.50;;;-0.70;99.90;;;;;;5048845;28;20251;-67
2021/01/27 03:30:25;;;;;;;5.65;4.45;;;-0.60;99.90;;;;;;5048768;28;20200;-68
2021/01/27 03:32:56;;;;;;;6.72;4.65;;;-0.60;99.90;;;;;;5048439;28;20224;-68
2021/01/27 03:35:32;;;;;;;5.20;4.43;;;-0.60;99.90;;;;;;5048641;28;20221;-68
2021/01/27 03:38:03;;;;;;;5.13;4.07;;;-0.60;99.90;;;;;;5049078;28;20251;-68
2021/01/27 03:40:29;;;;;;;6.82;4.07;;;-0.60;99.90;;;;;;5048337;28;20251;-67
2021/01/27 03:43:02;;;;;;;4.68;4.18;;;-0.50;99.90;;;;;;5048345;28;20704;-67
2021/01/27 03:45:32;;;;;;;4.88;4.40;;;-0.50;99.90;;;;;;5048565;28;20220;-68
2021/01/27 03:48:08;;;;;;;6.00;4.25;;;-0.50;99.90;;;;;;5049022;28;20212;-68
2021/01/27 03:50:36;;;;;;;6.45;4.05;;;-0.50;99.90;;;;;;5048299;28;20578;-68
2021/01/27 03:53:06;;;;;;;5.03;3.75;;;-0.50;99.90;;;;;;5048094;28;20220;-68
2021/01/27 03:55:37;;;;;;;4.97;4.30;;;-0.50;99.90;;;;;;5048324;28;20237;-68
2021/01/27 03:58:09;;;;;;;4.03;3.30;;;-0.50;99.90;;;;;;5048570;28;20220;-68
2021/01/27 04:00:35;;;;;;;4.00;3.42;;;-0.50;99.90;;;;;;5048259;28;20208;-68
2021/01/27 04:03:09;;;;;;;4.88;3.78;;;-0.50;99.90;;;;;;5047897;28;20201;-67
2021/01/27 04:05:35;;;;;;;5.63;3.58;;;-0.50;99.90;;;;;;5051957;28;20229;-70
2021/01/27 04:08:02;;;;;;;3.97;3.55;;;-0.40;99.90;;;;;;5052546;28;20205;-69
2021/01/27 04:10:29;;;;;;;5.25;3.25;;;-0.50;99.90;;;;;;5052280;28;20599;-69
2021/01/27 04:12:55;;;;;;;4.75;3.90;;;-0.50;99.90;;;;;;5051931;28;20228;-69
2021/01/27 04:15:21;;;;;;;4.57;3.90;;;-0.50;99.90;;;;;;5052015;28;20738;-69
2021/01/27 04:17:47;;;;;;;5.88;3.65;;;-0.40;99.90;;;;;;5052690;28;20594;-69
2021/01/27 04:20:14;;;;;;;5.10;2.70;;;-0.40;99.90;;;;;;5052166;28;20212;-69
2021/01/27 04:22:40;;;;;;;4.13;3.10;;;-0.30;99.90;;;;;;5051808;28;20200;-69
2021/01/27 04:25:08;;;;;;;4.95;3.63;;;-0.30;99.90;;;;;;5052339;28;21234;-70
2021/01/27 04:27:35;;;;;;;4.07;3.20;;;-0.30;99.90;;;;;;5051613;28;20197;-69
2021/01/27 04:30:03;;;;;;;5.10;3.30;;;-0.40;99.90;;;;;;5052282;28;20201;-69
2021/01/27 04:32:29;;;;;;;3.90;3.38;;;-0.40;99.90;;;;;;5051140;28;20221;-69
2021/01/27 04:34:56;;;;;;;7.32;3.50;;;-0.40;99.90;;;;;;5052286;28;20271;-69
2021/01/27 04:37:22;;;;;;;4.60;3.20;;;-0.40;99.90;;;;;;5052196;28;20201;-69
2021/01/27 04:39:48;;;;;;;3.40;3.10;;;-0.40;99.90;;;;;;5052257;28;20848;-70
2021/01/27 04:42:17;;;;;;;3.55;3.25;;;-0.40;99.90;;;;;;5052039;28;20204;-68
2021/01/27 04:44:43;;;;;;;4.63;3.55;;;-0.40;99.90;;;;;;5051566;28;20255;-70
2021/01/27 04:47:17;;;;;;;3.78;3.30;;;-0.40;99.90;;;;;;5052255;28;20251;-70
2021/01/27 04:49:47;;;;;;;4.25;3.28;;;-0.40;99.90;;;;;;5083571;22;20240;-92
2021/01/27 04:52:19;;;;;;;4.15;3.22;;;-0.50;99.90;;;;;;5092604;28;20228;-89
2021/01/27 04:55:06;;;;;;;6.93;4.00;;;-0.40;99.90;;;;;;5073816;28;20253;-90
2021/01/27 04:58:12;;;;;;;4.75;3.42;;;-0.40;99.90;;;;;;5073466;28;20196;-91
2021/01/27 05:00:49;;;;;;;4.50;3.40;;;-0.40;99.90;;;;;;5067334;28;20228;-91
2021/01/27 05:03:40;;;;;;;4.90;2.90;;;-0.40;99.90;;;;;;5073363;28;20222;-90
2021/01/27 05:06:13;;;;;;;4.47;3.50;;;-0.40;99.90;;;;;;5074011;28;20216;-92
2021/01/27 05:08:44;;;;;;;3.88;3.13;;;-0.40;99.90;;;;;;5073676;28;20205;-91
2021/01/27 05:11:14;;;;;;;3.60;3.30;;;-0.40;99.90;;;;;;5075420;28;20224;-91
2021/01/27 05:16:29;;;;;;;4.07;3.67;;;-0.40;99.90;;;;;;5093844;28;20214;-91
2021/01/27 05:18:58;;;;;;;5.00;3.80;;;-0.30;99.90;;;;;;5089102;28;20454;-92
2021/01/27 05:21:29;;;;;;;5.18;3.13;;;-0.30;99.90;;;;;;5081557;28;20228;-92
2021/01/27 05:24:04;;;;;;;4.70;3.10;;;-0.30;99.90;;;;;;5082794;28;20245;-92
2021/01/27 05:26:36;;;;;;;6.28;3.53;;;-0.30;99.90;;;;;;5088061;28;20641;-91
2021/01/27 05:29:06;;;;;;;4.90;2.90;;;-0.30;99.90;;;;;;5100370;28;20208;-93
2021/01/27 05:32:02;;;;;;;4.00;2.78;;;-0.20;99.90;;;;;;5103051;28;20206;-91
2021/01/27 05:34:31;;;;;;;5.72;3.92;;;-0.20;99.90;;;;;;5098285;28;20192;-90
2021/01/27 05:36:58;;;;;;;6.30;3.05;;;-0.20;99.90;;;;;;5094035;28;20189;-90
2021/01/27 05:39:28;;;;;;;3.22;2.90;;;-0.20;99.90;;;;;;5082785;28;20220;-89
2021/01/27 05:42:33;;;;;;;3.85;3.47;;;-0.20;99.90;;;;;;5071278;28;20196;-89
2021/01/27 05:45:30;;;;;;;4.15;2.95;;;-0.20;99.90;;;;;;5088129;28;20203;-88
2021/01/27 05:48:30;;;;;;;3.20;2.90;;;-0.20;99.90;;;;;;5093251;28;20594;-89
2021/01/27 05:51:12;;;;;;;6.88;3.60;;;-0.20;99.90;;;;;;5078230;28;20296;-89
2021/01/27 05:53:39;;;;;;;3.45;3.15;;;-0.20;99.90;;;;;;5092484;28;20223;-88
2021/01/27 05:56:13;;;;;;;5.45;3.20;;;-0.20;99.90;;;;;;5093506;28;20286;-91
2021/01/27 05:58:41;;;;;;;3.38;2.85;;;-0.20;99.90;;;;;;5092857;28;20678;-90
2021/01/27 06:01:28;;;;;;;4.22;3.20;;;-0.20;99.90;;;;;;5093040;28;20219;-91
2021/01/27 06:03:58;;;;;;;4.47;3.72;;;-0.20;99.90;;;;;;5092903;28;20215;-91
2021/01/27 06:06:25;;;;;;;5.05;3.33;;;-0.20;99.90;;;;;;5092807;28;20204;-91
2021/01/27 06:08:54;;;;;;;3.25;2.95;;;-0.20;99.90;;;;;;5092884;28;20196;-91
2021/01/27 06:11:21;;;;;;;3.92;3.58;;;-0.30;99.90;;;;;;5092426;28;20207;-91
2021/01/27 06:13:49;;;;;;;8.45;3.28;;;-0.30;99.90;;;;;;5092096;28;20623;-91
2021/01/27 06:16:22;;;;;;;4.22;3.20;;;-0.20;99.90;;;;;;5092486;28;20200;-91
2021/01/27 06:18:49;;;;;;;3.72;3.10;;;-0.20;99.90;;;;;;5092062;28;20199;-90
2021/01/27 06:21:51;;;;;;;4.85;3.15;;;-0.20;99.90;;;;;;5092567;28;20593;-90
2021/01/27 06:24:29;;;;;;;3.42;3.13;;;-0.20;99.90;;;;;;5092307;28;20200;-90
2021/01/27 06:27:24;;;;;;;3.50;3.08;;;-0.20;99.90;;;;;;5091734;28;20199;-90
2021/01/27 06:30:13;;;;;;;5.03;3.53;;;-0.20;99.90;;;;;;5092143;28;20594;-90
2021/01/27 06:33:24;;;;;;;4.15;3.30;;;-0.20;99.90;;;;;;5092335;28;20315;-92
2021/01/27 06:36:33;;;;;;;;;;;;;;;;;;;;;
2021/01/27 06:39:11;;;;;;;4.05;3.58;;;-0.20;99.90;;;;;;5093373;28;20207;-89
2021/01/27 06:42:01;;;;;;;4.75;3.92;;;-0.30;99.90;;;;;;5092472;28;20208;-88
2021/01/27 06:44:59;;;;;;;5.25;3.53;;;-0.30;99.90;;;;;;5082025;28;20195;-88
2021/01/27 06:47:53;;;;;;;3.40;3.08;;;-0.30;99.90;;;;;;5091192;28;20203;-88
2021/01/27 06:50:39;;;;;;;6.57;3.45;;;-0.30;99.90;;;;;;5089923;28;20722;-88
2021/01/27 06:53:53;;;;;;;3.42;3.00;;;-0.30;99.90;;;;;;5037867;28;21214;-88
2021/01/27 06:56:56;;;;;;;4.53;3.30;;;-0.30;99.90;;;;;;5070908;28;20287;-89
2021/01/27 07:00:17;;;;;;;6.78;3.40;;;-0.40;99.90;;;;;;5091753;28;20727;-89
2021/01/27 07:03:20;;;;;;;3.40;3.10;;;-0.30;99.90;;;;;;5082785;28;20850;-89
2021/01/27 07:06:19;;;;;;;4.15;3.20;;;-0.30;99.90;;;;;;5090109;28;20208;-89
2021/01/27 07:09:06;;;;;;;4.00;3.00;;;-0.30;99.90;;;;;;5091059;28;20208;-89
2021/01/27 07:11:51;;;;;;;5.75;3.25;;;-0.30;99.90;;;;;;5038743;28;20235;-90
2021/01/27 07:15:03;;;;;;;3.83;2.95;;;-0.30;99.90;;;;;;5089121;28;20196;-89
2021/01/27 07:23:28;;;;;;;3.00;2.70;;;-0.20;99.90;;;;;;1476651;26;20222;-89
2021/01/27 07:26:13;;;;;;;5.22;3.70;;;-0.10;99.90;;;;;;5015131;28;20247;-88
2021/01/27 07:28:51;;;;;;;3.95;3.17;;;0.00;99.90;;;;;;5010105;28;20636;-89
2021/01/27 07:31:32;;;;;;;3.15;2.58;;;0.10;99.90;;;;;;5010288;28;20711;-87
2021/01/27 07:34:04;;;;;;;4.55;2.92;;;0.10;99.90;;;;;;5009257;28;20214;-88
2021/01/27 07:36:48;;;;;;;4.30;3.47;;;0.10;99.90;;;;;;5010226;28;20210;-88
2021/01/27 07:39:21;;;;;;;3.38;2.72;;;0.20;99.90;;;;;;5010345;28;20230;-87
2021/01/27 07:42:10;;;;;;;4.22;3.30;;;0.30;99.90;;;;;;5009880;28;20214;-88
2021/01/27 07:44:38;;;;;;;3.78;2.70;;;0.30;99.90;;;;;;5009057;28;20217;-88
2021/01/27 07:47:22;;;;;;;3.08;2.78;;;0.20;99.90;;;;;;5009893;28;20206;-89
2021/01/27 07:49:51;;;;;;;3.60;2.50;;;0.20;99.90;;;;;;5005110;28;20222;-88
2021/01/27 07:52:26;;;;;;;2.97;2.53;;;0.20;99.90;;;;;;5011032;28;20309;-88
2021/01/27 07:55:09;;;;;;;3.80;3.40;;;0.30;99.90;;;;;;5005373;28;20201;-88
2021/01/27 07:57:55;;;;;;;3.83;2.95;;;0.20;99.90;;;;;;5010725;28;20207;-88
2021/01/27 08:00:30;;;;;;;3.33;2.80;;;0.10;99.90;;;;;;5003538;28;20229;-88
2021/01/27 08:03:22;;;;;;;6.30;3.05;;;0.10;99.90;;;;;;5010738;28;20264;-89
2021/01/27 08:18:30;;;;;;;3.70;3.28;;;-0.10;99.90;;;;;;5026626;28;20232;-90
2021/01/27 08:54:07;;;;;;;4.28;3.88;;;0.00;99.90;;;;;;4916249;29;20739;-88
2021/01/27 09:03:56;;;;;;;4.80;3.83;;;-0.10;99.90;;;;;;4868432;29;20222;-89
2021/01/27 09:06:54;;;;;;;3.65;3.33;;;0.00;99.90;;;;;;4955925;28;20238;-89
2021/01/27 09:09:27;;;;;;;3.90;3.60;;;0.00;99.90;;;;;;5034454;28;20202;-89
2021/01/27 09:12:05;;;;;;;9.20;3.70;;;0.00;99.90;;;;;;5033954;28;20209;-90
2021/01/27 09:14:32;;;;;;;5.57;3.60;;;0.00;99.90;;;;;;5034240;28;20210;-89
2021/01/27 09:17:01;;;;;;;4.45;3.85;;;-0.10;99.90;;;;;;5034577;28;20206;-90
2021/01/27 09:19:31;;;;;;;5.78;4.07;;;0.00;99.90;;;;;;5015061;28;20240;-89
2021/01/27 09:22:08;;;;;;;10.38;3.45;;;0.00;99.90;;;;;;5014489;28;20201;-89
2021/01/27 09:24:40;;;;;;;3.97;3.67;;;-0.10;99.90;;;;;;5026971;28;20209;-88
2021/01/27 09:27:18;;;;;;;5.00;3.55;;;-0.20;99.90;;;;;;5034666;28;20216;-89
2021/01/27 09:29:45;;;;;;;4.72;4.30;;;-0.20;99.90;;;;;;5034131;28;20275;-89
2021/01/27 09:32:15;;;;;;;3.47;3.05;;;-0.20;99.90;;;;;;5033125;28;20303;-88
2021/01/27 09:34:43;;;;;;;5.38;3.22;;;-0.10;99.90;;;;;;5033121;28;20210;-89
2021/01/27 09:37:14;;;;;;;4.55;3.70;;;-0.20;99.90;;;;;;5033347;28;20210;-89
2021/01/27 09:39:44;;;;;;;7.45;3.92;;;-0.20;99.90;;;;;;5033200;28;20766;-88
2021/01/27 09:42:20;;;;;;;3.00;2.70;;;-0.30;99.90;;;;;;5033083;28;20229;-91
2021/01/27 09:45:01;;;;;;;4.35;3.10;;;-0.30;99.90;;;;;;5032529;28;20315;-89
2021/01/27 09:47:28;;;;;;;5.00;3.50;;;-0.40;99.90;;;;;;5032910;28;20209;-90
2021/01/27 09:49:58;;;;;;;3.40;3.10;;;-0.40;99.90;;;;;;5033558;28;20218;-91
2021/01/27 09:52:26;;;;;;;5.15;3.03;;;-0.30;99.90;;;;;;5032997;28;20226;-89
2021/01/27 09:54:57;;;;;;;5.03;3.28;;;-0.30;99.90;;;;;;5033091;28;20285;-89
2021/01/27 09:57:26;;;;;;;4.00;3.20;;;-0.40;99.90;;;;;;5033328;28;20205;-89
2021/01/27 09:59:54;;;;;;;7.38;3.90;;;-0.30;99.90;;;;;;5035616;28;20258;-88
2021/01/27 10:02:29;;;;;;;5.13;3.42;;;-0.30;99.90;;;;;;5033632;28;20209;-89
2021/01/27 10:04:56;;;;;;;5.40;2.97;;;-0.30;99.90;;;;;;5032784;28;20208;-90
2021/01/27 10:07:27;;;;;;;4.40;3.33;;;-0.40;99.90;;;;;;5032744;28;20225;-88
2021/01/27 10:09:58;;;;;;;5.95;3.40;;;-0.40;99.90;;;;;;5032954;28;20230;-89
2021/01/27 10:12:27;;;;;;;3.40;3.05;;;-0.40;99.90;;;;;;5032613;28;20225;-88
2021/01/27 10:15:09;;;;;;;3.53;3.22;;;-0.30;99.90;;;;;;5031918;28;20256;-89
2021/01/27 10:17:35;;;;;;;5.55;2.85;;;-0.20;99.90;;;;;;5032493;28;20205;-89
2021/01/27 10:20:07;;;;;;;3.85;2.92;;;-0.20;99.90;;;;;;5032289;28;20222;-88
2021/01/27 10:22:37;;;;;;;5.07;2.90;;;-0.20;99.90;;;;;;5031702;28;20198;-89
2021/01/27 10:25:19;;;;;;;6.00;3.60;;;-0.10;99.90;;;;;;5033280;28;20251;-88
2021/01/27 10:27:46;;;;;;;6.40;3.25;;;0.00;99.90;;;;;;5031306;28;20201;-88
2021/01/27 10:30:34;;;;;;;3.78;3.15;;;0.10;99.90;;;;;;5031989;28;20238;-89
2021/01/27 10:33:00;;;;;;;3.25;2.90;;;0.20;99.90;;;;;;5031760;28;20232;-89
2021/01/27 10:35:33;;;;;;;5.82;3.30;;;0.30;99.90;;;;;;5031965;28;20202;-90
2021/01/27 10:38:20;;;;;;;8.90;3.30;;;0.30;99.90;;;;;;5032071;28;20221;-90
2021/01/27 10:41:29;;;;;;;3.78;3.38;;;0.40;99.90;;;;;;5033089;28;20232;-91
2021/01/27 10:50:47;;;;;;;5.93;3.00;;;0.40;99.90;;;;;;4976402;28;20369;-91
2021/01/27 10:53:16;;;;;;;3.63;2.90;;;0.30;99.90;;;;;;4990716;28;20778;-90
2021/01/27 10:55:47;;;;;;;4.13;2.92;;;0.20;99.90;;;;;;4991303;28;20240;-90
2021/01/27 10:58:17;;;;;;;2.47;2.28;;;0.10;99.90;;;;;;4992175;28;20211;-92
2021/01/27 11:03:46;;;;;;;4.15;2.78;;;0.10;99.90;;;;;;4990015;28;20201;-92
2021/01/27 11:12:59;;;;;;;4.15;2.50;;;0.10;99.90;;;;;;5013536;28;20287;-89
2021/01/27 11:15:25;;;;;;;2.63;2.42;;;0.00;99.90;;;;;;5030320;28;20272;-90
2021/01/27 11:18:00;;;;;;;4.00;2.45;;;0.10;99.90;;;;;;5031484;28;20202;-88
2021/01/27 11:21:03;;;;;;;3.55;2.05;;;0.10;99.90;;;;;;5031462;28;20503;-88
2021/01/27 11:23:44;;;;;;;4.72;2.95;;;0.10;99.90;;;;;;5011224;28;20204;-88
2021/01/27 11:35:50;;;;;;;2.63;2.20;;;0.60;99.90;;;;;;5009259;28;20214;-90
2021/01/27 11:38:18;;;;;;;2.17;1.98;;;0.70;99.90;;;;;;5010979;28;20210;-91
2021/01/27 11:41:03;;;;;;;5.28;2.42;;;0.70;99.90;;;;;;5022058;28;20308;-90
2021/01/27 11:44:14;;;;;;;2.20;2.00;;;0.70;99.90;;;;;;5030557;28;20197;-91
2021/01/27 11:49:32;;;;;;;1.65;1.50;;;0.80;99.90;;;;;;5031049;28;20582;-91
2021/01/27 11:52:00;;;;;;;2.20;1.65;;;0.70;99.90;;;;;;5030525;28;20280;-91
2021/01/27 11:57:08;;;;;;;2.10;1.90;;;0.70;99.90;;;;;;5029345;28;20713;-88
2021/01/27 11:59:36;;;;;;;2.17;1.98;;;0.70;99.90;;;;;;5030970;28;20703;-90
2021/01/27 12:02:08;;;;;;;3.35;2.28;;;0.70;99.90;;;;;;5030859;28;20293;-90
2021/01/27 12:13:11;;;;;;;2.25;1.88;;;0.70;99.90;;;;;;5085163;22;20979;-91
2021/01/27 12:15:38;;;;;;;5.10;1.70;;;0.70;99.90;;;;;;5051738;28;20258;-90
2021/01/27 12:20:46;;;;;;;2.33;1.67;;;0.80;99.90;;;;;;5051784;28;20283;-90
2021/01/27 12:23:52;;;;;;;1.85;1.67;;;0.90;99.90;;;;;;5052423;28;20193;-89
2021/01/27 12:26:19;;;;;;;1.55;1.45;;;0.80;99.90;;;;;;5055035;28;20208;-92
2021/01/27 12:28:47;;;;;;;2.55;1.60;;;0.80;99.90;;;;;;5054809;28;20213;-90
2021/01/27 12:31:13;;;;;;;3.05;1.95;;;0.80;99.90;;;;;;5054785;28;20227;-91
2021/01/27 12:33:40;;;;;;;2.00;1.80;;;0.70;99.90;;;;;;5053908;28;20229;-90
2021/01/27 12:36:07;;;;;;;2.47;2.00;;;0.60;99.90;;;;;;5054686;28;20208;-91
2021/01/27 12:38:36;;;;;;;2.33;1.85;;;0.50;99.90;;;;;;5054037;28;20246;-89
2021/01/27 12:41:43;;;;;;;;;;;;;;;;;;;;;
2021/01/27 12:44:10;;;;;;;2.00;1.90;;;0.70;99.90;;;;;;5053675;28;20217;-88
2021/01/27 12:46:36;;;;;;;2.17;1.98;;;0.80;99.90;;;;;;5053685;28;20213;-89
2021/01/27 12:49:03;;;;;;;2.10;1.90;;;0.90;99.90;;;;;;5054393;28;20216;-89
2021/01/27 12:51:29;;;;;;;4.68;2.20;;;0.90;99.90;;;;;;5053509;28;20229;-88
2021/01/27 12:53:56;;;;;;;2.60;1.90;;;0.80;99.90;;;;;;5052034;28;20756;-88
2021/01/27 12:56:22;;;;;;;2.38;2.17;;;0.80;99.90;;;;;;5053742;28;20588;-89
2021/01/27 12:58:48;;;;;;;2.90;2.58;;;0.70;99.90;;;;;;5060346;28;20251;-88
2021/01/27 13:01:15;;;;;;;2.50;2.20;;;0.70;99.90;;;;;;5053258;28;20232;-89
2021/01/27 13:03:42;;;;;;;2.70;1.77;;;0.80;99.90;;;;;;5053378;28;20202;-90
2021/01/27 13:06:09;;;;;;;3.30;1.90;;;0.80;99.90;;;;;;5053144;28;20201;-90
2021/01/27 13:08:47;;;;;;;4.57;2.22;;;0.80;99.90;;;;;;5059538;28;20216;-90
2021/01/27 13:14:25;;;;;;;4.45;2.08;;;1.00;99.90;;;;;;5049537;28;20221;-90
2021/01/27 13:16:52;;;;;;;2.60;2.38;;;1.10;99.90;;;;;;5054729;28;20197;-91
2021/01/27 13:19:18;;;;;;;3.15;2.35;;;1.20;99.90;;;;;;5053547;28;20693;-90
2021/01/27 13:21:45;;;;;;;4.95;3.30;;;1.20;99.90;;;;;;5054286;28;20205;-90
2021/01/27 13:24:38;;;;;;;2.78;2.40;;;1.20;99.90;;;;;;5054389;28;20565;-91
2021/01/27 13:27:05;;;;;;;3.30;2.00;;;1.20;99.90;;;;;;5054892;28;20209;-90
2021/01/27 13:29:31;;;;;;;3.78;2.13;;;1.20;99.90;;;;;;5060824;22;20531;-92
2021/01/27 13:32:38;;;;;;;3.33;2.15;;;1.20;99.90;;;;;;5053235;28;20292;-91
2021/01/27 13:35:07;;;;;;;4.78;2.50;;;1.20;99.90;;;;;;5055165;28;20581;-91
2021/01/27 13:41:12;;;;;;;5.55;2.80;;;1.20;99.90;;;;;;5052377;28;20355;-90
2021/01/27 13:43:49;;;;;;;5.53;2.50;;;1.10;99.90;;;;;;5045444;28;20217;-90
2021/01/27 13:49:06;;;;;;;3.67;2.40;;;1.00;99.90;;;;;;5025865;28;20213;-91
2021/01/27 13:51:46;;;;;;;4.50;2.55;;;1.00;99.90;;;;;;5033727;28;20224;-91
2021/01/27 13:57:36;;;;;;;2.65;2.45;;;1.00;99.90;;;;;;5020403;28;20204;-90
2021/01/27 14:03:19;;;;;;;;;;;;;;;;;;;;;
2021/01/27 14:06:14;;;;;;;3.30;3.00;;;0.90;99.90;;;;;;5032491;28;20220;-91
2021/01/27 14:08:56;;;;;;;3.40;2.72;;;0.80;99.90;;;;;;5033768;28;20214;-91
2021/01/27 14:11:58;;;;;;;3.00;2.70;;;0.80;99.90;;;;;;5031189;28;20233;-91
2021/01/27 14:14:25;;;;;;;2.72;2.45;;;0.60;99.90;;;;;;5033324;28;20221;-89
2021/01/27 14:17:06;;;;;;;4.65;2.88;;;0.70;99.90;;;;;;5035927;28;20270;-91
2021/01/27 14:22:26;;;;;;;4.65;2.50;;;0.80;99.90;;;;;;1204079;26;20240;-90
2021/01/27 14:25:42;;;;;;;3.13;2.78;;;1.00;99.90;;;;;;5033240;28;20198;-90
2021/01/27 14:28:20;;;;;;;;;;;;;;;;;;;;;
2021/01/27 14:31:09;;;;;;;3.35;3.05;;;1.00;99.90;;;;;;5031080;28;20624;-91
2021/01/27 14:40:18;;;;;;;3.83;2.85;;;1.00;99.90;;;;;;4924001;28;20327;-90
2021/01/27 14:46:29;;;;;;;4.60;3.83;;;1.00;99.90;;;;;;4932057;29;20796;-90
2021/01/27 14:53:16;;;;;;;5.32;3.20;;;1.00;99.90;;;;;;4873475;29;20206;-91
2021/01/27 14:55:48;;;;;;;4.28;3.03;;;1.00;99.90;;;;;;4909931;28;20295;-89
2021/01/27 14:58:27;;;;;;;3.95;3.17;;;1.20;99.90;;;;;;5032416;28;20224;-91
2021/01/27 15:00:53;;;;;;;3.60;3.30;;;1.20;99.90;;;;;;5034390;28;20217;-92
2021/01/27 15:03:25;;;;;;;5.22;3.65;;;1.20;99.90;;;;;;5035535;28;20216;-93
2021/01/27 15:05:52;;;;;;;4.47;3.33;;;1.20;99.90;;;;;;5032491;28;20227;-91
2021/01/27 15:08:18;;;;;;;5.85;4.00;;;1.20;99.90;;;;;;5037729;28;20213;-92
2021/01/27 15:10:44;;;;;;;3.50;3.20;;;1.10;99.90;;;;;;5051033;28;20226;-92
2021/01/27 15:13:14;;;;;;;3.67;3.22;;;1.10;99.90;;;;;;5046144;28;20307;-91
2021/01/27 15:15:44;;;;;;;5.93;3.22;;;1.10;99.90;;;;;;5045037;28;20233;-92
2021/01/27 15:18:10;;;;;;;4.07;3.40;;;1.20;99.90;;;;;;5043669;28;20417;-91
2021/01/27 15:20:37;;;;;;;4.20;3.33;;;1.10;99.90;;;;;;5032696;28;20291;-91
2021/01/27 15:23:03;;;;;;;4.30;3.45;;;1.20;99.90;;;;;;5032282;28;20206;-89
2021/01/27 15:25:29;;;;;;;3.58;3.28;;;1.10;99.90;;;;;;5032413;28;20738;-92
2021/01/27 15:27:56;;;;;;;4.40;3.15;;;1.10;99.90;;;;;;5031897;28;20201;-90
2021/01/27 15:30:25;;;;;;;3.72;3.42;;;1.10;99.90;;;;;;5033236;28;20226;-92
2021/01/27 15:33:22;;;;;;;4.60;2.92;;;1.10;99.90;;;;;;5034176;28;20240;-92
2021/01/27 15:36:47;;;;;;;;;;;;;;;;;;;;;
2021/01/27 15:40:05;;;;;;;3.72;3.35;;;1.20;99.90;;;;;;4897419;29;20573;-92
2021/01/27 15:46:53;;;;;;;8.48;4.20;;;1.10;99.90;;;;;;4933423;29;20260;-92
2021/01/27 15:53:05;;;;;;;3.90;3.35;;;1.10;99.90;;;;;;4992689;28;20229;-93
2021/01/27 15:55:33;;;;;;;4.53;3.40;;;1.20;99.90;;;;;;5031832;28;20202;-92
2021/01/27 16:04:52;;;;;;;5.13;4.20;;;1.00;99.90;;;;;;5114123;22;20231;-92
2021/01/27 16:10:52;;;;;;;4.55;4.05;;;1.00;99.90;;;;;;5060511;28;20221;-91